Time,TemperatureF,DewpointF,PressureIn,WindDirection,WindDirectionDegrees,WindSpeedMPH,WindSpeedGustMPH,Humidity,HourlyPrecipIn,Conditions,Clouds,dailyrainin,SolarRadiationWatts/m^2,SoftwareType,DateUTC
2013-03-20 00:00:00,-28.7,-29.3,29.84,NW,317,15.0,15.0,97,0.00,CLR,BKN,0.92,0.0,WeatherDisplay:10.37,2013-03-20 04:00:00,
2013-03-20 00:03:00,-28.7,-29.3,29.84,WNW,282,12.7,12.7,97,0.00,RA,BKN,0.00,0.0,WeatherDisplay:10.37,2013-03-20 04:03:00,
2013-03-20 00:08:00,-29.0,-29.6,29.85,NW,305,13.8,13.8,97,0.00,RA,BKN,0.00,0.0,WeatherDisplay:10.37,2013-03-20 04:08:00,
2013-03-20 00:13:00,-29.0,-29.6,29.85,NW,313,17.3,17.3,97,0.00,CLR,BKN,0.00,0.0,WeatherDisplay:10.37,2013-03-20 04:13:00,
2013-03-20 00:18:00,-29.7,-30.3,29.85,WNW,288,20.7,20.7,97,0.00,CLR,BKN,0.00,0.0,WeatherDisplay:10.37,2013-03-20 04:18:00,
2013-03-20 00:23:00,-29.7,-30.3,29.85,West,279,12.7,12.7,97,0.00,CLR,BKN,0.00,0.0,WeatherDisplay:10.37,2013-03-20 04:23:00,
2013-03-20 00:28:00,-30.1,-30.7,29.85,WNW,289,11.5,11.5,97,0.00,CLR,BKN,0.00,0.0,WeatherDisplay:10.37,2013-03-20 04:28:00,
2013-03-20 00:33:00,-30.5,-31.1,29.84,WNW,298,15.0,15.0,97,0.00,CLR,BKN,0.00,0.0,WeatherDisplay:10.37,2013-03-20 04:33:00,
2013-03-20 00:38:00,-31.0,-31.6,29.85,NW,309,12.7,12.7,97,0.00,CLR,BKN,0.00,0.0,WeatherDisplay:10.37,2013-03-20 04:38:00,
2013-03-20 00:43:00,-31.0,-31.6,29.85,NW,307,11.5,11.5,97,0.00,CLR,BKN,0.00,0.0,WeatherDisplay:10.37,2013-03-20 04:43:00,
2013-03-20 00:48:00,-31.4,-32.0,29.85,WNW,296,8.1,8.1,97,0.00,CLR,BKN,0.00,0.0,WeatherDisplay:10.37,2013-03-20 04:48:00,
2013-03-20 00:53:00,-31.8,-32.4,29.85,NW,311,10.0,10.0,97,0.00,CLR,BKN,0.00,0.0,WeatherDisplay:10.37,2013-03-20 04:53:00,
2013-03-20 00:58:00,-32.3,-32.8,29.85,NW,306,11.5,11.5,97,0.00,CLR,BKN,0.00,0.0,WeatherDisplay:10.37,2013-03-20 04:58:00,
2013-03-20 01:03:00,-32.7,-33.2,29.85,NW,309,9.2,9.2,97,0.00,CLR,BKN,0.00,0.0,WeatherDisplay:10.37,2013-03-20 05:03:00,
2013-03-20 01:08:00,-33.1,-33.6,29.86,NW,306,13.8,13.8,97,0.00,CLR,BKN,0.00,0.0,WeatherDisplay:10.37,2013-03-20 05:08:00,
2013-03-20 01:13:00,-33.6,-34.1,29.86,WNW,302,13.8,13.8,97,0.00,CLR,BKN,0.00,0.0,WeatherDisplay:10.37,2013-03-20 05:13:00,
2013-03-20 01:18:00,-33.6,-34.1,29.86,NW,317,11.5,11.5,97,0.00,CLR,BKN,0.00,0.0,WeatherDisplay:10.37,2013-03-20 05:18:00,
2013-03-20 01:23:00,-34.0,-34.5,29.86,West,278,12.0,12.0,97,0.00,CLR,BKN,0.00,0.0,WeatherDisplay:10.37,2013-03-20 05:23:00,
2013-03-20 01:28:00,-34.4,-34.9,29.86,NW,309,16.1,16.1,97,0.00,CLR,BKN,0.00,0.0,WeatherDisplay:10.37,2013-03-20 05:28:00,
2013-03-20 01:33:00,-34.4,-34.9,29.87,WNW,295,11.5,11.5,97,0.00,CLR,BKN,0.00,0.0,WeatherDisplay:10.37,2013-03-20 05:33:00,
2013-03-20 01:38:00,-34.8,-35.3,29.87,NW,313,13.8,13.8,97,0.00,CLR,BKN,0.00,0.0,WeatherDisplay:10.37,2013-03-20 05:38:00,
2013-03-20 01:43:00,-35.3,-35.8,29.87,WNW,292,11.5,11.5,97,0.00,CLR,BKN,0.00,0.0,WeatherDisplay:10.37,2013-03-20 05:43:00,
2013-03-20 01:48:00,-35.3,-35.8,29.87,WNW,300,11.5,11.5,97,0.00,CLR,BKN,0.00,0.0,WeatherDisplay:10.37,2013-03-20 05:48:00,
2013-03-20 01:53:00,-35.7,-36.2,29.87,WNW,286,9.2,9.2,97,0.00,CLR,BKN,0.00,0.0,WeatherDisplay:10.37,2013-03-20 05:53:00,
2013-03-20 01:58:00,-35.7,-36.2,29.87,WNW,294,11.0,11.0,97,0.00,CLR,BKN,0.00,0.0,WeatherDisplay:10.37,2013-03-20 05:58:00,
2013-03-20 02:03:00,-35.7,-36.2,29.87,NW,311,11.5,11.5,97,0.00,CLR,BKN,0.00,0.0,WeatherDisplay:10.37,2013-03-20 06:03:00,
2013-03-20 02:08:00,-36.1,-36.6,29.87,WNW,294,11.5,11.5,97,0.00,CLR,BKN,0.00,0.0,WeatherDisplay:10.37,2013-03-20 06:08:00,
2013-03-20 02:13:00,-36.1,-36.6,29.88,WNW,298,18.4,18.4,97,0.00,CLR,BKN,0.00,0.0,WeatherDisplay:10.37,2013-03-20 06:13:00,
2013-03-20 02:18:00,-36.6,-37.1,29.88,WNW,292,12.7,12.7,97,0.00,CLR,BKN,0.00,0.0,WeatherDisplay:10.37,2013-03-20 06:18:00,
2013-03-20 02:23:00,-36.6,-37.1,29.88,WNW,299,12.7,12.7,97,0.00,CLR,BKN,0.00,0.0,WeatherDisplay:10.37,2013-03-20 06:23:00,
2013-03-20 02:28:00,-37.0,-37.5,29.88,NW,306,15.0,15.0,97,0.00,CLR,BKN,0.00,0.0,WeatherDisplay:10.37,2013-03-20 06:28:00,
2013-03-20 02:33:00,-37.4,-37.9,29.88,WNW,288,18.4,18.4,97,0.00,CLR,BKN,0.00,0.0,WeatherDisplay:10.37,2013-03-20 06:33:00,
2013-03-20 02:38:00,-37.4,-37.9,29.88,WNW,298,6.9,6.9,97,0.00,CLR,BKN,0.00,0.0,WeatherDisplay:10.37,2013-03-20 06:38:00,
2013-03-20 02:43:00,-37.4,-37.9,29.88,WNW,296,13.8,13.8,97,0.00,CLR,BKN,0.00,0.0,WeatherDisplay:10.37,2013-03-20 06:43:00,
2013-03-20 02:48:00,-37.8,-38.3,29.88,WNW,288,13.0,13.0,97,0.00,CLR,BKN,0.00,0.0,WeatherDisplay:10.37,2013-03-20 06:48:00,
2013-03-20 02:53:00,-37.8,-38.3,29.88,WNW,285,13.8,13.8,97,0.00,CLR,BKN,0.00,0.0,WeatherDisplay:10.37,2013-03-20 06:53:00,
2013-03-20 02:58:00,-37.8,-38.3,29.88,WNW,286,19.0,19.0,97,0.00,CLR,BKN,0.00,0.0,WeatherDisplay:10.37,2013-03-20 06:58:00,
2013-03-20 03:03:00,-37.8,-38.3,29.89,WNW,297,18.4,18.4,97,0.00,CLR,BKN,0.00,0.0,WeatherDisplay:10.37,2013-03-20 07:03:00,
2013-03-20 03:08:00,-38.3,-38.8,29.89,West,266,19.6,19.6,97,0.00,CLR,BKN,0.00,0.0,WeatherDisplay:10.37,2013-03-20 07:08:00,
2013-03-20 03:13:00,-38.3,-38.8,29.89,West,275,19.6,19.6,97,0.00,CLR,BKN,0.00,0.0,WeatherDisplay:10.37,2013-03-20 07:13:00,
2013-03-20 03:18:00,-38.3,-38.8,29.89,WNW,287,15.0,15.0,97,0.00,CLR,BKN,0.00,0.0,WeatherDisplay:10.37,2013-03-20 07:18:00,
2013-03-20 03:23:00,-38.7,-39.2,29.89,WNW,284,11.5,11.5,97,0.00,CLR,BKN,0.00,0.0,WeatherDisplay:10.37,2013-03-20 07:23:00,
2013-03-20 03:28:00,-38.7,-39.2,29.89,West,274,11.5,11.5,97,0.00,CLR,BKN,0.00,0.0,WeatherDisplay:10.37,2013-03-20 07:28:00,
2013-03-20 03:33:00,-38.7,-39.2,29.89,West,270,12.7,12.7,97,0.00,CLR,BKN,0.00,0.0,WeatherDisplay:10.37,2013-03-20 07:33:00,
2013-03-20 03:38:00,-39.2,-39.7,29.89,WNW,298,13.8,13.8,97,0.00,CLR,BKN,0.00,0.0,WeatherDisplay:10.37,2013-03-20 07:38:00,
2013-03-20 03:43:00,-39.2,-39.7,29.89,West,277,17.3,17.3,97,0.00,CLR,BKN,0.00,0.0,WeatherDisplay:10.37,2013-03-20 07:43:00,
2013-03-20 03:48:00,-39.2,-39.7,29.89,West,271,17.3,17.3,97,0.00,CLR,BKN,0.00,0.0,WeatherDisplay:10.37,2013-03-20 07:48:00,
2013-03-20 03:53:00,-39.2,-39.7,29.90,WNW,292,14.0,14.0,97,0.00,CLR,BKN,0.00,0.0,WeatherDisplay:10.37,2013-03-20 07:53:00,
2013-03-20 03:58:00,-39.2,-39.7,29.89,WNW,293,15.0,15.0,97,0.00,CLR,BKN,0.00,0.0,WeatherDisplay:10.37,2013-03-20 07:58:00,
2013-03-20 04:03:00,-39.2,-39.7,29.89,West,275,12.7,12.7,97,0.00,CLR,BKN,0.00,0.0,WeatherDisplay:10.37,2013-03-20 08:03:00,
2013-03-20 04:08:00,-39.8,-40.3,29.89,West,277,11.5,11.5,97,0.00,CLR,BKN,0.00,0.0,WeatherDisplay:10.37,2013-03-20 08:08:00,
2013-03-20 04:13:00,-39.8,-40.3,29.89,WNW,303,11.5,11.5,97,0.00,CLR,BKN,0.00,0.0,WeatherDisplay:10.37,2013-03-20 08:13:00,
2013-03-20 04:18:00,-40.4,-40.9,29.89,West,279,11.5,11.5,97,0.00,CLR,BKN,0.00,0.0,WeatherDisplay:10.37,2013-03-20 08:18:00,
2013-03-20 04:23:00,-40.4,-40.9,29.90,West,279,9.0,9.0,97,0.00,CLR,BKN,0.00,0.0,WeatherDisplay:10.37,2013-03-20 08:23:00,
2013-03-20 04:28:00,-40.4,-40.9,29.90,WNW,284,9.2,9.2,97,0.00,CLR,BKN,0.00,0.0,WeatherDisplay:10.37,2013-03-20 08:28:00,
2013-03-20 04:33:00,-40.4,-40.9,29.89,West,273,5.8,5.8,97,0.00,CLR,BKN,0.00,0.0,WeatherDisplay:10.37,2013-03-20 08:33:00,
2013-03-20 04:38:00,-40.4,-40.9,29.90,West,260,15.0,15.0,97,0.00,CLR,BKN,0.00,0.0,WeatherDisplay:10.37,2013-03-20 08:38:00,
2013-03-20 04:43:00,-40.4,-40.9,29.90,West,271,17.3,17.3,97,0.00,CLR,BKN,0.00,0.0,WeatherDisplay:10.37,2013-03-20 08:43:00,
2013-03-20 04:48:00,-40.4,-40.9,29.90,West,280,20.7,20.7,97,0.00,CLR,BKN,0.00,0.0,WeatherDisplay:10.37,2013-03-20 08:48:00,
2013-03-20 04:53:00,-40.4,-40.9,29.90,WSW,255,21.9,21.9,97,0.00,CLR,BKN,0.00,0.0,WeatherDisplay:10.37,2013-03-20 08:53:00,
2013-03-20 04:58:00,-40.9,-41.4,29.90,West,263,17.3,17.3,97,0.00,CLR,BKN,0.00,0.0,WeatherDisplay:10.37,2013-03-20 08:58:00,
2013-03-20 05:03:00,-40.9,-41.4,29.90,WSW,254,21.0,21.0,97,0.00,CLR,BKN,0.00,0.0,WeatherDisplay:10.37,2013-03-20 09:03:00,
2013-03-20 05:08:00,-40.9,-41.4,29.90,West,269,17.3,17.4,97,0.00,CLR,BKN,0.00,0.0,WeatherDisplay:10.37,2013-03-20 09:08:00,
2013-03-20 05:13:00,-40.9,-41.4,29.90,West,271,25.3,25.3,97,0.00,CLR,BKN,0.00,0.0,WeatherDisplay:10.37,2013-03-20 09:13:00,
2013-03-20 05:18:00,-40.9,-41.4,29.90,WSW,252,19.6,19.6,97,0.00,CLR,BKN,0.00,0.0,WeatherDisplay:10.37,2013-03-20 09:18:00,
2013-03-20 05:23:00,-41.5,-42.0,29.90,WSW,248,26.5,26.5,97,0.00,CLR,BKN,0.00,0.0,WeatherDisplay:10.37,2013-03-20 09:23:00,
2013-03-20 05:28:00,-41.5,-42.0,29.90,WSW,253,18.4,18.4,97,0.00,CLR,BKN,0.00,0.0,WeatherDisplay:10.37,2013-03-20 09:28:00,
2013-03-20 05:33:00,-41.5,-42.0,29.91,West,261,18.4,18.4,97,0.00,CLR,BKN,0.00,0.0,WeatherDisplay:10.37,2013-03-20 09:33:00,
2013-03-20 05:38:00,-41.5,-42.0,29.91,WSW,242,19.6,19.6,97,0.00,CLR,BKN,0.00,0.0,WeatherDisplay:10.37,2013-03-20 09:38:00,
2013-03-20 05:43:00,-41.5,-42.0,29.90,West,263,20.7,20.7,97,0.00,CLR,BKN,0.00,0.0,WeatherDisplay:10.37,2013-03-20 09:43:00,
2013-03-20 05:48:00,-42.1,-42.6,29.91,WSW,258,25.3,25.3,97,0.00,CLR,BKN,0.00,0.0,WeatherDisplay:10.37,2013-03-20 09:48:00,
2013-03-20 05:53:00,-42.1,-42.6,29.91,West,261,15.0,15.0,97,0.00,CLR,BKN,0.00,0.0,WeatherDisplay:10.37,2013-03-20 09:53:00,
2013-03-20 05:58:00,-42.1,-42.6,29.91,WSW,248,19.6,19.6,97,0.00,CLR,BKN,0.00,0.0,WeatherDisplay:10.37,2013-03-20 09:58:00,
2013-03-20 06:03:00,-42.1,-42.6,29.91,West,263,20.7,20.7,97,0.00,CLR,BKN,0.00,0.0,WeatherDisplay:10.37,2013-03-20 10:03:00,
2013-03-20 06:08:00,-42.1,-42.6,29.91,West,261,16.0,16.0,97,0.00,CLR,BKN,0.00,0.0,WeatherDisplay:10.37,2013-03-20 10:08:00,
2013-03-20 06:13:00,-42.1,-42.6,29.91,West,267,17.3,17.3,97,0.00,CLR,BKN,0.00,0.0,WeatherDisplay:10.37,2013-03-20 10:13:00,
2013-03-20 06:18:00,-42.1,-42.6,29.91,WSW,257,19.6,19.6,97,0.00,CLR,BKN,0.00,0.0,WeatherDisplay:10.37,2013-03-20 10:18:00,
2013-03-20 06:23:00,-42.1,-42.6,29.91,WSW,251,17.3,17.3,97,0.00,CLR,BKN,0.00,0.0,WeatherDisplay:10.37,2013-03-20 10:23:00,
2013-03-20 06:28:00,-42.1,-42.6,29.91,WSW,250,19.6,19.6,97,0.00,OVC,BKN,0.00,0.0,WeatherDisplay:10.37,2013-03-20 10:28:00,
2013-03-20 06:33:00,-42.1,-42.6,29.91,WSW,250,19.6,19.6,97,0.00,OVC,BKN,0.00,0.0,WeatherDisplay:10.37,2013-03-20 10:33:00,
2013-03-20 06:38:00,-42.6,-43.1,29.92,SW,236,18.4,18.4,97,0.00,OVC,BKN,0.00,0.0,WeatherDisplay:10.37,2013-03-20 10:38:00,
2013-03-20 06:43:00,-42.6,-43.1,29.92,West,273,19.6,19.6,97,0.00,OVC,BKN,0.00,0.0,WeatherDisplay:10.37,2013-03-20 10:43:00,
2013-03-20 06:48:00,-42.6,-43.1,29.92,West,262,19.6,19.6,97,0.00,OVC,BKN,0.00,0.0,WeatherDisplay:10.37,2013-03-20 10:48:00,
2013-03-20 06:53:00,-42.6,-43.1,29.92,WSW,257,23.0,23.0,97,0.00,OVC,BKN,0.00,0.0,WeatherDisplay:10.37,2013-03-20 10:53:00,
2013-03-20 06:58:00,-42.6,-43.1,29.92,West,265,20.7,20.7,97,0.00,OVC,BKN,0.00,5.0,WeatherDisplay:10.37,2013-03-20 10:58:00,
2013-03-20 07:03:00,-42.6,-43.1,29.91,West,262,22.0,22.0,97,0.00,OVC,BKN,0.00,7.0,WeatherDisplay:10.37,2013-03-20 11:03:00,
2013-03-20 07:08:00,-42.6,-43.1,29.91,WSW,258,23.0,23.0,97,0.00,OVC,BKN,0.00,9.0,WeatherDisplay:10.37,2013-03-20 11:08:00,
2013-03-20 07:13:00,-42.6,-43.1,29.92,WSW,257,17.3,17.3,97,0.00,CLR,BKN,0.00,12.0,WeatherDisplay:10.37,2013-03-20 11:13:00,
2013-03-20 07:18:00,-42.6,-43.1,29.92,West,272,19.6,19.6,97,0.00,CLR,BKN,0.00,19.0,WeatherDisplay:10.37,2013-03-20 11:18:00,
2013-03-20 07:23:00,-42.6,-43.1,29.92,West,264,23.0,23.0,97,0.00,SCT,BKN,0.00,19.0,WeatherDisplay:10.37,2013-03-20 11:23:00,
2013-03-20 07:28:00,-42.6,-43.1,29.91,West,263,16.1,16.1,97,0.00,BKN,,0.00,21.0,WeatherDisplay:10.37,2013-03-20 11:28:00,
2013-03-20 07:34:00,-42.6,-43.1,29.91,WSW,248,21.9,21.9,97,0.00,SCT,BKN,0.00,46.0,WeatherDisplay:10.37,2013-03-20 11:34:00,
2013-03-20 07:39:00,-42.6,-43.1,29.92,West,261,17.0,17.0,97,0.00,CLR,BKN,0.00,70.0,WeatherDisplay:10.37,2013-03-20 11:39:00,
2013-03-20 07:44:00,-42.6,-43.1,29.92,WSW,247,20.7,20.7,97,0.00,CLR,BKN,0.00,97.0,WeatherDisplay:10.37,2013-03-20 11:44:00,
2013-03-20 07:49:00,-42.6,-43.1,29.92,WSW,246,18.4,18.4,97,0.00,CLR,BKN,0.00,105.0,WeatherDisplay:10.37,2013-03-20 11:49:00,
2013-03-20 07:54:00,-42.6,-43.1,29.92,West,271,16.1,16.1,97,0.00,CLR,BKN,0.00,128.0,WeatherDisplay:10.37,2013-03-20 11:54:00,
2013-03-20 07:59:00,-42.6,-43.1,29.92,SW,234,19.6,19.6,97,0.00,CLR,BKN,0.00,142.0,WeatherDisplay:10.37,2013-03-20 11:59:00,
2013-03-20 08:04:00,-42.6,-43.1,29.92,WSW,238,15.0,15.0,97,0.00,CLR,BKN,0.00,158.0,WeatherDisplay:10.37,2013-03-20 12:04:00,
2013-03-20 08:09:00,-42.6,-43.1,29.92,West,259,21.9,21.9,97,0.00,CLR,BKN,0.00,181.0,WeatherDisplay:10.37,2013-03-20 12:09:00,
2013-03-20 08:14:00,-42.6,-43.1,29.91,West,259,23.0,23.0,97,0.00,CLR,BKN,0.00,199.0,WeatherDisplay:10.37,2013-03-20 12:14:00,
2013-03-20 08:19:00,-42.6,-43.1,29.92,West,269,24.0,24.0,97,0.00,CLR,BKN,0.00,220.0,WeatherDisplay:10.37,2013-03-20 12:19:00,
2013-03-20 08:24:00,-42.6,-43.1,29.91,West,266,24.2,24.2,97,0.00,CLR,BKN,0.00,237.0,WeatherDisplay:10.37,2013-03-20 12:24:00,
2013-03-20 08:29:00,-42.6,-43.1,29.92,WSW,250,24.2,24.2,97,0.00,CLR,BKN,0.00,257.0,WeatherDisplay:10.37,2013-03-20 12:29:00,
2013-03-20 08:34:00,-42.6,-43.1,29.92,SW,234,19.6,19.6,97,0.00,CLR,BKN,0.00,271.0,WeatherDisplay:10.37,2013-03-20 12:34:00,
2013-03-20 08:39:00,-42.6,-43.1,29.91,West,275,24.2,24.2,97,0.00,CLR,BKN,0.00,288.0,WeatherDisplay:10.37,2013-03-20 12:39:00,
2013-03-20 08:44:00,-42.6,-43.1,29.91,WSW,246,20.0,20.0,97,0.00,CLR,BKN,0.00,302.0,WeatherDisplay:10.37,2013-03-20 12:44:00,
2013-03-20 08:49:00,-42.6,-43.1,29.91,West,260,25.3,25.3,97,0.00,CLR,BKN,0.00,318.0,WeatherDisplay:10.37,2013-03-20 12:49:00,
2013-03-20 08:54:00,-42.6,-43.1,29.91,West,261,26.5,26.5,97,0.00,CLR,BKN,0.00,334.0,WeatherDisplay:10.37,2013-03-20 12:54:00,
2013-03-20 08:59:00,-42.6,-43.1,29.91,WSW,254,25.3,25.3,97,0.00,CLR,BKN,0.00,346.0,WeatherDisplay:10.37,2013-03-20 12:59:00,
2013-03-20 09:04:00,-42.6,-43.1,29.91,West,271,23.0,23.0,97,0.00,CLR,BKN,0.00,360.0,WeatherDisplay:10.37,2013-03-20 13:04:00,
2013-03-20 09:09:00,-42.6,-43.1,29.91,West,271,20.7,20.7,97,0.00,CLR,BKN,0.00,378.0,WeatherDisplay:10.37,2013-03-20 13:09:00,
2013-03-20 09:14:00,-43.2,-43.7,29.91,WNW,286,23.0,23.0,97,0.00,CLR,BKN,0.00,404.0,WeatherDisplay:10.37,2013-03-20 13:14:00,
2013-03-20 09:19:00,-43.2,-43.7,29.91,WSW,255,21.9,21.9,97,0.00,CLR,BKN,0.00,401.0,WeatherDisplay:10.37,2013-03-20 13:19:00,
2013-03-20 09:24:00,-42.6,-43.1,29.91,West,268,23.0,23.0,97,0.00,CLR,BKN,0.00,431.0,WeatherDisplay:10.37,2013-03-20 13:24:00,
2013-03-20 09:29:00,-43.2,-43.7,29.91,WNW,296,23.0,23.0,97,0.00,CLR,BKN,0.00,471.0,WeatherDisplay:10.37,2013-03-20 13:29:00,
2013-03-20 09:34:00,-42.6,-43.1,29.91,West,273,25.3,25.3,97,0.00,CLR,BKN,0.00,450.0,WeatherDisplay:10.37,2013-03-20 13:34:00,
2013-03-20 09:39:00,-43.2,-43.7,29.91,West,277,25.3,25.3,97,0.00,CLR,BKN,0.00,524.0,WeatherDisplay:10.37,2013-03-20 13:39:00,
2013-03-20 09:44:00,-43.2,-43.7,29.91,NW,319,20.7,20.7,97,0.00,CLR,BKN,0.00,543.0,WeatherDisplay:10.37,2013-03-20 13:44:00,
2013-03-20 09:49:00,-43.2,-43.7,29.91,WNW,286,13.8,13.8,97,0.00,BKN,,0.00,120.0,WeatherDisplay:10.37,2013-03-20 13:49:00,
2013-03-20 09:54:00,-43.2,-43.7,29.91,West,275,18.4,18.4,97,0.00,BKN,,0.00,130.0,WeatherDisplay:10.37,2013-03-20 13:54:00,
2013-03-20 09:59:00,-43.2,-43.7,29.91,WNW,284,24.2,24.2,97,0.00,BKN,,0.00,141.0,WeatherDisplay:10.37,2013-03-20 13:59:00,
2013-03-20 10:04:00,-43.2,-43.7,29.91,WSW,258,26.5,26.5,97,0.00,BKN,,0.00,178.0,WeatherDisplay:10.37,2013-03-20 14:04:00,
2013-03-20 10:09:00,-43.2,-43.7,29.91,WSW,250,24.2,24.2,97,0.00,BKN,,0.00,188.0,WeatherDisplay:10.37,2013-03-20 14:09:00,
2013-03-20 10:14:00,-43.2,-43.7,29.91,West,268,26.5,26.5,97,0.00,BKN,,0.00,183.0,WeatherDisplay:10.37,2013-03-20 14:14:00,
2013-03-20 10:19:00,-43.2,-43.7,29.91,WSW,248,26.5,26.5,97,0.00,BKN,,0.00,185.0,WeatherDisplay:10.37,2013-03-20 14:19:00,
2013-03-20 10:24:00,-42.6,-43.1,29.91,West,278,24.0,24.0,97,0.00,BKN,,0.00,155.0,WeatherDisplay:10.37,2013-03-20 14:24:00,
2013-03-20 10:29:00,-42.6,-43.1,29.91,WNW,288,24.2,24.2,97,0.00,BKN,,0.00,141.0,WeatherDisplay:10.37,2013-03-20 14:29:00,
2013-03-20 10:34:00,-42.6,-43.1,29.92,West,270,21.9,21.9,97,0.00,BKN,,0.00,193.0,WeatherDisplay:10.37,2013-03-20 14:34:00,
2013-03-20 10:39:00,-43.2,-43.7,29.92,WSW,254,21.9,21.9,97,0.00,BKN,,0.00,186.0,WeatherDisplay:10.37,2013-03-20 14:39:00,
2013-03-20 10:44:00,-43.2,-43.7,29.92,West,277,20.7,20.7,97,0.00,BKN,,0.00,121.0,WeatherDisplay:10.37,2013-03-20 14:44:00,
2013-03-20 10:49:00,-43.8,-44.3,29.92,West,268,23.0,23.0,97,0.00,BKN,,0.00,186.0,WeatherDisplay:10.37,2013-03-20 14:49:00,
2013-03-20 10:54:00,-43.2,-43.7,29.92,WNW,284,19.6,19.6,97,0.00,BKN,,0.00,134.0,WeatherDisplay:10.37,2013-03-20 14:54:00,
2013-03-20 10:59:00,-43.2,-43.7,29.92,West,277,24.2,24.2,97,0.00,BKN,,0.00,135.0,WeatherDisplay:10.37,2013-03-20 14:59:00,
2013-03-20 11:04:00,-43.2,-43.7,29.92,West,266,24.2,24.2,97,0.00,BKN,,0.00,294.0,WeatherDisplay:10.37,2013-03-20 15:04:00,
2013-03-20 11:09:00,-42.6,-43.1,29.92,SW,233,18.4,18.4,97,0.00,CLR,BKN,0.00,548.0,WeatherDisplay:10.37,2013-03-20 15:09:00,
2013-03-20 11:14:00,-43.2,-43.7,29.92,West,262,21.9,21.9,97,0.00,CLR,BKN,0.00,635.0,WeatherDisplay:10.37,2013-03-20 15:14:00,
2013-03-20 11:19:00,-43.2,-43.7,29.92,WSW,250,28.8,28.8,97,0.00,CLR,BKN,0.00,733.0,WeatherDisplay:10.37,2013-03-20 15:19:00,
2013-03-20 11:24:00,-43.2,-43.7,29.92,West,267,23.0,23.0,97,0.00,CLR,BKN,0.00,754.0,WeatherDisplay:10.37,2013-03-20 15:24:00,
2013-03-20 11:29:00,-43.2,-43.7,29.92,WNW,300,23.0,23.0,97,0.00,CLR,BKN,0.00,756.0,WeatherDisplay:10.37,2013-03-20 15:29:00,
2013-03-20 11:34:00,-42.6,-43.1,29.91,WSW,245,23.0,23.0,97,0.00,CLR,BKN,0.00,761.0,WeatherDisplay:10.37,2013-03-20 15:34:00,
2013-03-20 11:39:00,-43.2,-43.7,29.91,West,280,26.5,26.5,97,0.00,CLR,BKN,0.00,745.0,WeatherDisplay:10.37,2013-03-20 15:39:00,
2013-03-20 11:44:00,-43.2,-43.7,29.91,WSW,256,19.6,19.6,97,0.00,CLR,BKN,0.00,789.0,WeatherDisplay:10.37,2013-03-20 15:44:00,
2013-03-20 11:49:00,-43.8,-44.3,29.91,West,259,26.5,26.5,97,0.00,FEW,BKN,0.00,557.0,WeatherDisplay:10.37,2013-03-20 15:49:00,
2013-03-20 11:54:00,-43.8,-44.3,29.91,West,261,25.3,25.3,97,0.00,CLR,BKN,0.00,621.0,WeatherDisplay:10.37,2013-03-20 15:54:00,
2013-03-20 11:59:00,-43.8,-44.3,29.91,West,261,26.5,26.5,97,0.00,CLR,BKN,0.00,673.0,WeatherDisplay:10.37,2013-03-20 15:59:00,
2013-03-20 12:04:00,-43.2,-43.7,29.91,West,279,24.0,24.0,97,0.00,CLR,BKN,0.00,703.0,WeatherDisplay:10.37,2013-03-20 16:04:00,
2013-03-20 12:09:00,-43.8,-44.3,29.91,West,263,21.9,21.9,97,0.00,CLR,BKN,0.00,751.0,WeatherDisplay:10.37,2013-03-20 16:09:00,
2013-03-20 12:14:00,-43.2,-43.7,29.91,West,271,25.3,25.3,97,0.00,CLR,BKN,0.00,795.0,WeatherDisplay:10.37,2013-03-20 16:14:00,
2013-03-20 12:19:00,-43.8,-44.3,29.91,West,276,23.0,23.0,97,0.00,CLR,BKN,0.00,805.0,WeatherDisplay:10.37,2013-03-20 16:19:00,
2013-03-20 12:24:00,-43.8,-44.3,29.90,West,277,26.5,26.5,97,0.00,CLR,BKN,0.00,810.0,WeatherDisplay:10.37,2013-03-20 16:24:00,
2013-03-20 12:29:00,-43.8,-44.3,29.90,West,273,20.7,20.7,97,0.00,CLR,BKN,0.00,814.0,WeatherDisplay:10.37,2013-03-20 16:29:00,
2013-03-20 12:34:00,-43.2,-43.7,29.90,West,269,17.3,17.3,97,0.00,CLR,BKN,0.00,809.0,WeatherDisplay:10.37,2013-03-20 16:34:00,
2013-03-20 12:39:00,-43.8,-44.3,29.90,WSW,257,25.3,25.3,97,0.00,CLR,BKN,0.00,805.0,WeatherDisplay:10.37,2013-03-20 16:39:00,
2013-03-20 12:44:00,-43.8,-44.3,29.89,West,275,17.0,17.0,97,0.00,CLR,BKN,0.00,819.0,WeatherDisplay:10.37,2013-03-20 16:44:00,
2013-03-20 12:49:00,-43.8,-44.3,29.89,West,271,21.9,21.9,97,0.00,CLR,BKN,0.00,814.0,WeatherDisplay:10.37,2013-03-20 16:49:00,
2013-03-20 12:54:00,-43.8,-44.3,29.90,WSW,248,20.7,20.7,97,0.00,CLR,BKN,0.00,816.0,WeatherDisplay:10.37,2013-03-20 16:54:00,
2013-03-20 12:59:00,-43.2,-43.7,29.89,West,261,23.0,23.0,97,0.00,CLR,BKN,0.00,814.0,WeatherDisplay:10.37,2013-03-20 16:59:00,
2013-03-20 13:04:00,-43.2,-43.7,29.89,West,275,16.1,16.1,97,0.00,CLR,BKN,0.00,682.0,WeatherDisplay:10.37,2013-03-20 17:04:00,
2013-03-20 13:09:00,-43.8,-44.3,29.89,WNW,290,18.4,18.4,97,0.00,BKN,,0.00,160.0,WeatherDisplay:10.37,2013-03-20 17:09:00,
2013-03-20 13:14:00,-44.4,-44.9,29.89,WNW,296,16.1,16.1,97,0.00,CLR,BKN,0.00,833.0,WeatherDisplay:10.37,2013-03-20 17:14:00,
2013-03-20 13:19:00,-43.8,-44.3,29.89,SW,225,18.4,18.4,97,0.00,CLR,BKN,0.00,807.0,WeatherDisplay:10.37,2013-03-20 17:19:00,
2013-03-20 13:24:00,-43.2,-43.7,29.89,WSW,248,19.6,19.6,97,0.00,CLR,BKN,0.00,861.0,WeatherDisplay:10.37,2013-03-20 17:24:00,
2013-03-20 13:29:00,-43.2,-43.7,29.89,West,279,17.3,17.3,97,0.00,FEW,BKN,0.00,629.0,WeatherDisplay:10.37,2013-03-20 17:29:00,
2013-03-20 13:34:00,-42.6,-43.1,29.88,SW,236,15.0,15.0,97,0.00,CLR,BKN,0.00,814.0,WeatherDisplay:10.37,2013-03-20 17:34:00,
2013-03-20 13:39:00,-43.2,-43.7,29.88,WSW,256,21.9,21.9,97,0.00,CLR,BKN,0.00,803.0,WeatherDisplay:10.37,2013-03-20 17:39:00,
2013-03-20 13:44:00,-43.8,-44.3,29.88,SSW,212,19.6,19.6,97,0.00,CLR,BKN,0.00,816.0,WeatherDisplay:10.37,2013-03-20 17:44:00,
2013-03-20 13:49:00,-43.2,-43.7,29.87,West,272,19.6,19.6,97,0.00,CLR,BKN,0.00,789.0,WeatherDisplay:10.37,2013-03-20 17:49:00,
2013-03-20 13:54:00,-43.8,-44.3,29.88,West,263,19.6,19.6,97,0.00,CLR,BKN,0.00,791.0,WeatherDisplay:10.37,2013-03-20 17:54:00,
2013-03-20 13:59:00,-43.2,-43.7,29.87,West,266,17.3,17.3,97,0.00,CLR,BKN,0.00,768.0,WeatherDisplay:10.37,2013-03-20 17:59:00,
2013-03-20 14:04:00,-43.2,-43.7,29.87,West,259,16.1,16.1,97,0.00,CLR,BKN,0.00,786.0,WeatherDisplay:10.37,2013-03-20 18:04:00,
2013-03-20 14:09:00,-43.2,-43.7,29.86,West,268,18.4,18.4,97,0.00,CLR,BKN,0.00,775.0,WeatherDisplay:10.37,2013-03-20 18:09:00,
2013-03-20 14:14:00,-43.2,-43.7,29.86,WSW,254,18.4,18.4,97,0.00,CLR,BKN,0.00,770.0,WeatherDisplay:10.37,2013-03-20 18:14:00,
2013-03-20 14:19:00,-43.2,-43.7,29.86,WSW,254,19.6,19.6,97,0.00,CLR,BKN,0.00,761.0,WeatherDisplay:10.37,2013-03-20 18:19:00,
2013-03-20 14:24:00,-43.2,-43.7,29.85,West,264,19.6,19.6,97,0.00,CLR,BKN,0.00,758.0,WeatherDisplay:10.37,2013-03-20 18:24:00,
2013-03-20 14:29:00,-43.8,-44.3,29.85,WNW,288,18.4,18.4,97,0.00,CLR,BKN,0.00,749.0,WeatherDisplay:10.37,2013-03-20 18:29:00,
2013-03-20 14:34:00,-43.8,-44.3,29.85,WNW,298,16.1,16.1,97,0.00,CLR,BKN,0.00,740.0,WeatherDisplay:10.37,2013-03-20 18:34:00,
2013-03-20 14:39:00,-43.2,-43.7,29.85,West,275,15.0,15.0,97,0.00,CLR,BKN,0.00,735.0,WeatherDisplay:10.37,2013-03-20 18:39:00,
2013-03-20 14:44:00,-43.2,-43.7,29.85,WSW,241,19.6,19.6,97,0.00,CLR,BKN,0.00,728.0,WeatherDisplay:10.37,2013-03-20 18:44:00,
2013-03-20 14:49:00,-43.8,-44.3,29.84,West,269,21.9,21.9,97,0.00,CLR,BKN,0.00,696.0,WeatherDisplay:10.37,2013-03-20 18:49:00,
2013-03-20 14:54:00,-43.8,-44.3,29.84,WSW,237,23.0,23.0,97,0.00,CLR,BKN,0.00,717.0,WeatherDisplay:10.37,2013-03-20 18:54:00,
2013-03-20 14:59:00,-44.4,-44.9,29.84,WSW,241,20.7,20.7,97,0.00,CLR,BKN,0.00,707.0,WeatherDisplay:10.37,2013-03-20 18:59:00,
2013-03-20 15:04:00,-43.8,-44.3,29.84,WSW,250,15.0,15.0,97,0.00,CLR,BKN,0.00,698.0,WeatherDisplay:10.37,2013-03-20 19:04:00,
2013-03-20 15:09:00,-43.8,-44.3,29.84,West,277,19.6,19.6,97,0.00,CLR,BKN,0.00,698.0,WeatherDisplay:10.37,2013-03-20 19:09:00,
2013-03-20 15:14:00,-43.8,-44.3,29.84,WSW,240,19.6,19.6,97,0.00,CLR,BKN,0.00,728.0,WeatherDisplay:10.37,2013-03-20 19:14:00,
2013-03-20 15:19:00,-43.8,-44.3,29.84,West,276,20.7,20.7,97,0.00,CLR,BKN,0.00,733.0,WeatherDisplay:10.37,2013-03-20 19:19:00,
2013-03-20 15:24:00,-44.4,-44.9,29.84,WSW,255,20.0,20.0,97,0.00,CLR,BKN,0.00,721.0,WeatherDisplay:10.37,2013-03-20 19:24:00,
2013-03-20 15:29:00,-44.4,-44.9,29.84,WNW,290,14.0,14.0,97,0.00,BKN,,0.00,204.0,WeatherDisplay:10.37,2013-03-20 19:29:00,
2013-03-20 15:34:00,-44.4,-44.9,29.84,WSW,246,19.6,19.6,97,0.00,CLR,BKN,0.00,761.0,WeatherDisplay:10.37,2013-03-20 19:34:00,
2013-03-20 15:39:00,-44.4,-44.9,29.84,WSW,253,26.5,26.5,97,0.00,CLR,BKN,0.00,694.0,WeatherDisplay:10.37,2013-03-20 19:39:00,
2013-03-20 15:44:00,-44.9,-45.4,29.84,WSW,240,26.5,26.5,97,0.00,CLR,BKN,0.00,721.0,WeatherDisplay:10.37,2013-03-20 19:44:00,
2013-03-20 15:49:00,-44.9,-45.4,29.84,WSW,258,22.0,22.0,97,0.00,BKN,,0.00,209.0,WeatherDisplay:10.37,2013-03-20 19:49:00,
2013-03-20 15:54:00,-44.9,-45.4,29.84,WSW,246,26.5,26.5,97,0.00,CLR,BKN,0.00,631.0,WeatherDisplay:10.37,2013-03-20 19:54:00,
2013-03-20 15:59:00,-44.9,-45.4,29.84,WSW,248,18.4,18.4,97,0.00,CLR,BKN,0.00,455.0,WeatherDisplay:10.37,2013-03-20 19:59:00,
2013-03-20 16:04:00,-44.4,-44.9,29.84,SW,217,11.5,11.5,97,0.00,CLR,BKN,0.00,631.0,WeatherDisplay:10.37,2013-03-20 20:04:00,
2013-03-20 16:09:00,-44.9,-45.4,29.84,West,263,25.3,25.3,97,0.00,SCT,BKN,0.00,316.0,WeatherDisplay:10.37,2013-03-20 20:09:00,
2013-03-20 16:14:00,-44.4,-44.9,29.84,SW,227,26.5,26.5,97,0.00,SCT,BKN,0.00,188.0,WeatherDisplay:10.37,2013-03-20 20:14:00,
2013-03-20 16:19:00,-44.9,-45.4,29.84,West,261,20.7,20.7,97,0.00,SCT,BKN,0.00,206.0,WeatherDisplay:10.37,2013-03-20 20:19:00,
2013-03-20 16:24:00,-45.5,-46.0,29.84,West,275,21.0,21.0,97,0.00,BKN,,0.00,193.0,WeatherDisplay:10.37,2013-03-20 20:24:00,
2013-03-20 16:29:00,-45.5,-46.0,29.84,West,266,19.6,19.6,97,0.00,SCT,BKN,0.00,248.0,WeatherDisplay:10.37,2013-03-20 20:29:00,
2013-03-20 16:34:00,-45.5,-46.0,29.84,SW,228,12.7,12.7,97,0.00,SCT,BKN,0.00,214.0,WeatherDisplay:10.37,2013-03-20 20:34:00,
2013-03-20 16:39:00,-45.5,-46.0,29.84,West,270,18.0,18.0,97,0.00,BKN,,0.00,185.0,WeatherDisplay:10.37,2013-03-20 20:39:00,
2013-03-20 16:44:00,-46.1,-46.6,29.84,WSW,243,17.3,17.3,97,0.00,BKN,,0.00,272.0,WeatherDisplay:10.37,2013-03-20 20:44:00,
2013-03-20 16:49:00,-45.5,-46.0,29.84,WSW,256,25.3,25.3,97,0.00,CLR,BKN,0.00,225.0,WeatherDisplay:10.37,2013-03-20 20:49:00,
2013-03-20 16:54:00,-46.1,-46.6,29.84,WSW,255,27.6,27.6,97,0.00,BKN,,0.00,135.0,WeatherDisplay:10.37,2013-03-20 20:54:00,
2013-03-20 16:59:00,-46.1,-46.6,29.84,West,261,25.3,25.3,97,0.00,SCT,BKN,0.00,253.0,WeatherDisplay:10.37,2013-03-20 20:59:00,
2013-03-20 17:04:00,-46.7,-47.2,29.84,West,265,19.6,19.6,97,0.00,CLR,BKN,0.00,271.0,WeatherDisplay:10.37,2013-03-20 21:04:00,
2013-03-20 17:09:00,-46.7,-47.2,29.84,West,266,20.7,20.7,97,0.00,CLR,BKN,0.00,397.0,WeatherDisplay:10.37,2013-03-20 21:09:00,
2013-03-20 17:14:00,-46.1,-46.6,29.84,West,267,18.4,18.4,97,0.00,CLR,BKN,0.00,341.0,WeatherDisplay:10.37,2013-03-20 21:14:00,
2013-03-20 17:19:00,-46.7,-47.2,29.84,WSW,256,25.0,25.0,97,0.00,CLR,BKN,0.00,283.0,WeatherDisplay:10.37,2013-03-20 21:19:00,
2013-03-20 17:24:00,-46.7,-47.2,29.84,West,265,20.7,20.7,97,0.00,BKN,,0.00,98.0,WeatherDisplay:10.37,2013-03-20 21:24:00,
2013-03-20 17:29:00,-47.2,-47.7,29.84,West,267,23.0,23.0,97,0.00,BKN,,0.00,123.0,WeatherDisplay:10.37,2013-03-20 21:29:00,
2013-03-20 17:34:00,-47.2,-47.7,29.84,West,280,19.6,19.6,97,0.00,FEW,BKN,0.00,193.0,WeatherDisplay:10.37,2013-03-20 21:34:00,
2013-03-20 17:39:00,-47.8,-48.3,29.84,West,273,38.0,38.0,97,0.00,SCT,BKN,0.00,167.0,WeatherDisplay:10.37,2013-03-20 21:39:00,
2013-03-20 17:44:00,-47.8,-48.3,29.84,WSW,258,23.0,23.0,97,0.00,CLR,BKN,0.00,250.0,WeatherDisplay:10.37,2013-03-20 21:44:00,
2013-03-20 17:49:00,-47.2,-47.7,29.84,West,262,21.9,21.9,97,0.00,CLR,BKN,0.00,169.0,WeatherDisplay:10.37,2013-03-20 21:49:00,
2013-03-20 17:54:00,-47.8,-48.3,29.84,West,261,21.9,21.9,97,0.00,BKN,,0.00,83.0,WeatherDisplay:10.37,2013-03-20 21:54:00,
2013-03-20 17:59:00,-47.8,-48.3,29.84,WSW,249,19.6,19.6,97,0.00,BKN,,0.00,72.0,WeatherDisplay:10.37,2013-03-20 21:59:00,
2013-03-20 18:04:00,-47.8,-48.3,29.84,WSW,241,18.4,18.4,97,0.00,SCT,BKN,0.00,107.0,WeatherDisplay:10.37,2013-03-20 22:04:00,
2013-03-20 18:09:00,-47.8,-48.3,29.84,WSW,253,21.0,21.0,97,0.00,FEW,BKN,0.00,132.0,WeatherDisplay:10.37,2013-03-20 22:09:00,
2013-03-20 18:14:00,-47.8,-48.3,29.84,SW,236,12.7,12.7,97,0.00,FEW,BKN,0.00,113.0,WeatherDisplay:10.37,2013-03-20 22:14:00,
2013-03-20 18:19:00,-47.8,-48.3,29.84,WSW,254,16.0,16.0,97,0.00,SCT,BKN,0.00,63.0,WeatherDisplay:10.37,2013-03-20 22:19:00,
2013-03-20 18:24:00,-48.4,-48.9,29.84,WSW,254,15.0,15.0,97,0.00,SCT,BKN,0.00,49.0,WeatherDisplay:10.37,2013-03-20 22:24:00,
2013-03-20 18:29:00,-48.4,-48.9,29.84,SW,232,13.8,13.8,97,0.00,BKN,,0.00,46.0,WeatherDisplay:10.37,2013-03-20 22:29:00,
2013-03-20 18:34:00,-48.4,-48.9,29.84,West,274,20.7,20.7,97,0.00,BKN,,0.00,33.0,WeatherDisplay:10.37,2013-03-20 22:34:00,
2013-03-20 18:39:00,-48.9,-49.4,29.84,WSW,249,20.7,20.7,97,0.00,BKN,,0.00,25.0,WeatherDisplay:10.37,2013-03-20 22:39:00,
2013-03-20 18:44:00,-48.9,-49.4,29.84,West,281,13.8,13.8,97,0.00,BKN,,0.00,19.0,WeatherDisplay:10.37,2013-03-20 22:44:00,
2013-03-20 18:49:00,-48.9,-49.4,29.84,West,275,15.0,15.0,97,0.00,BKN,,0.00,14.0,WeatherDisplay:10.37,2013-03-20 22:49:00,
2013-03-20 18:54:00,-48.9,-49.4,29.84,West,275,17.3,17.3,97,0.00,BKN,,0.00,11.0,WeatherDisplay:10.37,2013-03-20 22:54:00,
2013-03-20 18:59:00,-48.9,-49.4,29.84,WNW,300,16.0,16.0,97,0.00,BKN,,0.00,9.0,WeatherDisplay:10.37,2013-03-20 22:59:00,
2013-03-20 19:04:00,-48.9,-49.4,29.85,WSW,258,16.1,16.1,97,0.00,BKN,,0.00,5.0,WeatherDisplay:10.37,2013-03-20 23:04:00,
2013-03-20 19:09:00,-49.5,-50.0,29.85,West,270,16.1,16.1,97,0.00,OVC,BKN,0.00,0.0,WeatherDisplay:10.37,2013-03-20 23:09:00,
2013-03-20 19:14:00,-49.5,-50.0,29.84,WNW,288,3.5,3.5,97,0.00,OVC,BKN,0.00,0.0,WeatherDisplay:10.37,2013-03-20 23:14:00,
2013-03-20 19:19:00,-49.5,-50.0,29.85,West,278,2.3,2.3,97,0.00,OVC,BKN,0.00,0.0,WeatherDisplay:10.37,2013-03-20 23:19:00,
2013-03-20 19:24:00,-50.1,-50.6,29.85,West,269,3.5,3.5,97,0.00,OVC,BKN,0.00,0.0,WeatherDisplay:10.37,2013-03-20 23:24:00,
2013-03-20 19:29:00,-50.1,-50.6,29.85,West,269,1.1,1.1,97,0.00,OVC,BKN,0.00,0.0,WeatherDisplay:10.37,2013-03-20 23:29:00,
2013-03-20 19:34:00,-50.1,-50.6,29.85,West,272,2.3,2.3,97,0.00,OVC,BKN,0.00,0.0,WeatherDisplay:10.37,2013-03-20 23:34:00,
2013-03-20 19:39:00,-50.7,-51.2,29.85,WNW,286,2.3,2.3,97,0.00,CLR,BKN,0.00,0.0,WeatherDisplay:10.37,2013-03-20 23:39:00,
2013-03-20 19:44:00,-50.7,-51.2,29.84,WNW,290,1.1,1.1,97,0.00,CLR,BKN,0.00,0.0,WeatherDisplay:10.37,2013-03-20 23:44:00,
2013-03-20 19:49:00,-50.7,-51.2,29.85,WNW,290,1.1,1.1,97,0.00,CLR,BKN,0.00,0.0,WeatherDisplay:10.37,2013-03-20 23:49:00,
2013-03-20 19:54:00,-52.2,-52.7,29.85,WNW,290,1.1,1.1,97,0.00,CLR,BKN,0.00,0.0,WeatherDisplay:10.37,2013-03-20 23:54:00,
2013-03-20 19:59:00,-52.2,-52.7,29.85,WNW,292,1.1,1.1,97,0.00,CLR,BKN,0.00,0.0,WeatherDisplay:10.37,2013-03-20 23:59:00,
2013-03-20 20:04:00,-52.2,-52.7,29.85,WNW,292,1.1,1.1,97,0.00,CLR,BKN,0.00,0.0,WeatherDisplay:10.37,2013-03-21 00:04:00,
2013-03-20 20:09:00,-54.5,-55.0,29.85,WNW,292,1.1,1.1,97,0.00,CLR,BKN,0.00,0.0,WeatherDisplay:10.37,2013-03-21 00:09:00,
2013-03-20 20:14:00,-54.5,-55.0,29.85,WNW,292,1.1,1.1,97,0.00,CLR,BKN,0.00,0.0,WeatherDisplay:10.37,2013-03-21 00:14:00,
2013-03-20 20:19:00,-54.5,-55.0,29.85,WNW,292,0.0,0.1,97,0.00,CLR,BKN,0.00,0.0,WeatherDisplay:10.37,2013-03-21 00:19:00,
2013-03-20 20:24:00,-54.5,-55.0,29.85,WNW,292,0.0,0.0,97,0.00,CLR,BKN,0.00,0.0,WeatherDisplay:10.37,2013-03-21 00:24:00,
2013-03-20 20:29:00,-54.5,-55.0,29.85,WNW,292,1.1,0.0,97,0.00,CLR,BKN,0.00,0.0,WeatherDisplay:10.37,2013-03-21 00:29:00,
2013-03-20 20:34:00,-56.8,-57.3,29.85,WNW,292,1.1,0.0,97,0.00,CLR,BKN,0.00,0.0,WeatherDisplay:10.37,2013-03-21 00:34:00,
2013-03-20 20:39:00,-56.8,-57.3,29.86,WNW,292,1.1,0.0,97,0.00,CLR,BKN,0.00,0.0,WeatherDisplay:10.37,2013-03-21 00:39:00,
2013-03-20 20:44:00,-56.8,-57.3,29.86,WNW,292,0.0,0.0,97,0.00,CLR,BKN,0.00,0.0,WeatherDisplay:10.37,2013-03-21 00:44:00,
2013-03-20 20:49:00,-56.8,-57.3,29.86,WNW,292,0.0,0.0,97,0.00,CLR,BKN,0.00,0.0,WeatherDisplay:10.37,2013-03-21 00:49:00,
2013-03-20 20:54:00,-56.8,-57.3,29.86,WNW,292,0.0,0.0,97,0.00,CLR,BKN,0.00,0.0,WeatherDisplay:10.37,2013-03-21 00:54:00,
2013-03-20 20:59:00,-56.8,-57.3,29.86,WNW,292,0.0,0.0,97,0.00,CLR,BKN,0.00,0.0,WeatherDisplay:10.37,2013-03-21 00:59:00,
2013-03-20 21:04:00,-56.8,-57.3,29.86,WNW,292,0.0,0.0,97,0.00,CLR,BKN,0.00,0.0,WeatherDisplay:10.37,2013-03-21 01:04:00,
2013-03-20 21:09:00,-56.8,-57.3,29.86,WNW,292,0.0,0.0,97,0.00,CLR,BKN,0.00,0.0,WeatherDisplay:10.37,2013-03-21 01:09:00,
2013-03-20 21:14:00,-56.8,-57.3,29.86,WNW,292,0.0,0.0,97,0.00,CLR,BKN,0.00,0.0,WeatherDisplay:10.37,2013-03-21 01:14:00,
2013-03-20 21:20:00,-56.8,-57.3,29.87,WNW,292,0.0,0.0,97,0.00,CLR,BKN,0.00,0.0,WeatherDisplay:10.37,2013-03-21 01:20:00,
2013-03-20 21:25:00,-56.8,-57.3,29.87,WNW,292,0.0,0.0,97,0.00,CLR,BKN,0.00,0.0,WeatherDisplay:10.37,2013-03-21 01:25:00,
2013-03-20 21:30:00,-56.8,-57.3,29.87,WNW,292,0.0,0.0,97,0.00,CLR,BKN,0.00,0.0,WeatherDisplay:10.37,2013-03-21 01:30:00,
2013-03-20 21:35:00,-56.8,-57.3,29.87,WNW,292,0.0,0.0,97,0.00,CLR,BKN,0.00,0.0,WeatherDisplay:10.37,2013-03-21 01:35:00,
2013-03-20 21:40:00,-56.8,-57.3,29.87,WNW,292,0.0,0.0,97,0.00,CLR,BKN,0.00,0.0,WeatherDisplay:10.37,2013-03-21 01:40:00,
2013-03-20 21:45:00,-56.8,-57.3,29.87,WNW,292,0.0,0.0,97,0.00,CLR,BKN,0.00,0.0,WeatherDisplay:10.37,2013-03-21 01:45:00,
2013-03-20 21:50:00,-56.8,-57.3,29.87,WNW,292,0.0,0.0,97,0.00,CLR,BKN,0.00,0.0,WeatherDisplay:10.37,2013-03-21 01:50:00,
2013-03-20 21:55:00,-56.8,-57.3,29.87,WNW,292,0.0,0.0,97,0.00,CLR,BKN,0.00,0.0,WeatherDisplay:10.37,2013-03-21 01:55:00,
2013-03-20 22:00:00,-56.8,-57.3,29.87,WNW,292,0.0,0.0,97,0.00,CLR,BKN,0.00,0.0,WeatherDisplay:10.37,2013-03-21 02:00:00,
2013-03-20 22:05:00,-56.8,-57.3,29.87,WNW,292,0.0,0.1,97,0.00,CLR,BKN,0.00,0.0,WeatherDisplay:10.37,2013-03-21 02:05:00,
2013-03-20 22:10:00,-56.8,-57.3,29.87,WNW,292,1.1,1.1,97,0.00,CLR,BKN,0.00,0.0,WeatherDisplay:10.37,2013-03-21 02:10:00,
2013-03-20 22:15:00,-56.8,-57.3,29.87,WNW,292,1.1,1.1,97,0.00,CLR,BKN,0.00,0.0,WeatherDisplay:10.37,2013-03-21 02:15:00,
2013-03-20 22:20:00,-56.8,-57.3,29.88,WNW,292,1.1,1.1,97,0.00,CLR,BKN,0.00,0.0,WeatherDisplay:10.37,2013-03-21 02:20:00,
2013-03-20 22:25:00,-56.8,-57.3,29.88,WNW,292,1.1,0.0,97,0.00,CLR,BKN,0.00,0.0,WeatherDisplay:10.37,2013-03-21 02:25:00,
2013-03-20 22:30:00,-56.8,-57.3,29.87,WNW,292,0.0,0.0,97,0.00,CLR,BKN,0.00,0.0,WeatherDisplay:10.37,2013-03-21 02:30:00,
2013-03-20 22:35:00,-56.8,-57.3,29.87,WNW,292,0.0,0.0,97,0.00,CLR,BKN,0.00,0.0,WeatherDisplay:10.37,2013-03-21 02:35:00,
2013-03-20 22:40:00,-56.8,-57.3,29.88,WNW,292,0.0,0.0,97,0.00,CLR,BKN,0.00,0.0,WeatherDisplay:10.37,2013-03-21 02:40:00,
2013-03-20 22:45:00,-56.8,-57.3,29.88,WNW,292,0.0,0.0,97,0.00,CLR,BKN,0.00,0.0,WeatherDisplay:10.37,2013-03-21 02:45:00,
2013-03-20 22:50:00,-56.8,-57.3,29.88,WNW,292,0.0,0.0,97,0.00,CLR,BKN,0.00,0.0,WeatherDisplay:10.37,2013-03-21 02:50:00,
2013-03-20 22:55:00,-56.8,-57.3,29.88,WNW,292,0.0,0.0,97,0.00,CLR,BKN,0.00,0.0,WeatherDisplay:10.37,2013-03-21 02:55:00,
2013-03-20 23:00:00,-56.8,-57.3,29.88,WNW,292,0.0,0.0,97,0.00,CLR,BKN,0.00,0.0,WeatherDisplay:10.37,2013-03-21 03:00:00,
2013-03-20 23:05:00,-56.8,-57.3,29.89,WNW,292,0.0,0.0,97,0.00,CLR,BKN,0.00,0.0,WeatherDisplay:10.37,2013-03-21 03:05:00,
2013-03-20 23:10:00,-56.8,-57.3,29.89,WNW,293,1.1,1.1,97,0.00,CLR,BKN,0.00,0.0,WeatherDisplay:10.37,2013-03-21 03:10:00,
2013-03-20 23:15:00,-56.8,-57.3,29.89,WNW,292,1.1,0.0,97,0.00,CLR,BKN,0.00,0.0,WeatherDisplay:10.37,2013-03-21 03:15:00,
2013-03-20 23:20:00,-56.8,-57.3,29.89,WNW,292,0.0,0.0,97,0.00,CLR,BKN,0.00,0.0,WeatherDisplay:10.37,2013-03-21 03:20:00,
2013-03-20 23:25:00,-56.8,-57.3,29.89,WNW,292,1.1,1.1,97,0.00,CLR,BKN,0.00,0.0,WeatherDisplay:10.37,2013-03-21 03:25:00,
2013-03-20 23:30:00,-56.8,-57.3,29.89,WNW,292,0.0,0.0,97,0.00,CLR,BKN,0.00,0.0,WeatherDisplay:10.37,2013-03-21 03:30:00,
2013-03-20 23:35:00,-56.8,-57.3,29.88,WNW,300,1.1,1.1,97,0.00,CLR,BKN,0.00,0.0,WeatherDisplay:10.37,2013-03-21 03:35:00,
2013-03-20 23:40:00,-56.8,-57.3,29.88,WNW,300,1.1,1.1,97,0.00,CLR,BKN,0.00,0.0,WeatherDisplay:10.37,2013-03-21 03:40:00,
2013-03-20 23:45:00,-56.8,-57.3,29.88,WNW,303,1.1,1.1,97,0.00,CLR,BKN,0.00,0.0,WeatherDisplay:10.37,2013-03-21 03:45:00,
2013-03-20 23:50:00,-56.8,-57.3,29.88,NW,304,1.1,1.1,97,0.00,CLR,BKN,0.00,0.0,WeatherDisplay:10.37,2013-03-21 03:50:00,
2013-03-20 23:55:00,-56.8,-57.3,29.88,NW,304,1.1,1.1,97,0.00,CLR,BKN,0.00,0.0,WeatherDisplay:10.37,2013-03-21 03:55:00,